Time;durP1;ratioP1;P1;durP2;ratioP2;P2;SDS_P1;SDS_P2;PMS_P1;PMS_P2;Temp;Humidity;BMP_temperature;BMP_pressure;BME280_temperature;BME280_humidity;BME280_pressure;Samples;Min_cycle;Max_cycle;Signal;HPM_P1;HPM_P2
2023/11/15 00:02:17;;;;;;;1.93;0.90;;;9.00;99.90;;;;;;5024695;28;20090;-82
2023/11/15 00:04:42;;;;;;;2.47;0.70;;;9.10;99.90;;;;;;5019560;28;21498;-83
2023/11/15 00:07:09;;;;;;;2.53;1.17;;;9.10;99.90;;;;;;5021839;28;20068;-82
2023/11/15 00:09:35;;;;;;;1.80;0.63;;;9.10;99.90;;;;;;5004343;28;20698;-82
2023/11/15 00:12:01;;;;;;;1.63;0.67;;;9.10;99.90;;;;;;5021228;28;20037;-81
2023/11/15 00:14:26;;;;;;;1.00;0.70;;;9.10;99.90;;;;;;5020214;28;20447;-83
2023/11/15 00:16:52;;;;;;;0.87;0.60;;;9.10;99.90;;;;;;5018466;28;20029;-82
2023/11/15 00:19:20;;;;;;;0.50;0.50;;;9.10;99.90;;;;;;5019584;28;20030;-83
2023/11/15 00:21:47;;;;;;;0.60;0.60;;;9.10;99.90;;;;;;5022867;28;20027;-83
2023/11/15 00:24:12;;;;;;;2.20;0.70;;;9.00;99.90;;;;;;5019926;28;20025;-83
2023/11/15 00:26:38;;;;;;;1.27;0.57;;;9.00;99.90;;;;;;5020416;28;20025;-83
2023/11/15 00:29:04;;;;;;;2.53;0.70;;;9.10;99.90;;;;;;5020367;28;20034;-83
2023/11/15 00:31:30;;;;;;;1.70;0.60;;;9.00;99.90;;;;;;5026804;28;20034;-83
2023/11/15 00:33:55;;;;;;;1.03;0.60;;;9.00;99.90;;;;;;5026929;28;20033;-82
2023/11/15 00:36:21;;;;;;;1.30;1.00;;;9.00;99.90;;;;;;5021361;28;20079;-83
2023/11/15 00:38:49;;;;;;;1.83;0.70;;;9.00;99.90;;;;;;5028199;28;20526;-82
2023/11/15 00:41:15;;;;;;;1.20;0.90;;;9.00;99.90;;;;;;5021705;28;20025;-82
2023/11/15 00:43:40;;;;;;;2.77;0.90;;;9.00;99.90;;;;;;5020114;28;20797;-83
2023/11/15 00:46:09;;;;;;;0.83;0.50;;;9.00;99.90;;;;;;5023719;28;20030;-82
2023/11/15 00:48:35;;;;;;;0.63;0.60;;;9.10;99.90;;;;;;5022028;28;20345;-83
2023/11/15 00:51:00;;;;;;;2.50;0.83;;;9.10;99.90;;;;;;5022904;28;20101;-83
2023/11/15 00:53:26;;;;;;;1.87;0.77;;;9.10;99.90;;;;;;5019996;28;20056;-83
2023/11/15 00:55:51;;;;;;;1.00;0.70;;;9.10;99.90;;;;;;5020244;28;21284;-82
2023/11/15 00:58:17;;;;;;;1.73;0.60;;;9.10;99.90;;;;;;5021829;28;20029;-82
2023/11/15 01:00:48;;;;;;;2.17;0.80;;;9.10;99.90;;;;;;5019247;28;20044;-83
2023/11/15 01:03:25;;;;;;;2.30;0.83;;;9.20;99.90;;;;;;5025381;28;20034;-83
2023/11/15 01:05:51;;;;;;;1.67;0.80;;;9.20;99.90;;;;;;5025885;28;20119;-82
2023/11/15 01:08:17;;;;;;;3.57;0.70;;;9.20;99.90;;;;;;5025032;28;20025;-82
2023/11/15 01:10:42;;;;;;;1.63;0.70;;;9.10;99.90;;;;;;5019631;28;20025;-82
2023/11/15 01:13:09;;;;;;;2.50;0.90;;;9.10;99.90;;;;;;5020434;28;20025;-83
2023/11/15 01:15:35;;;;;;;2.43;0.90;;;9.10;99.90;;;;;;5020514;28;20496;-82
2023/11/15 01:18:07;;;;;;;0.90;0.80;;;9.20;99.90;;;;;;5019286;28;20171;-82
2023/11/15 01:20:33;;;;;;;1.53;0.70;;;9.10;99.90;;;;;;5020175;28;20033;-83
2023/11/15 01:22:59;;;;;;;2.50;0.77;;;9.10;99.90;;;;;;5020773;28;20033;-82
2023/11/15 01:25:30;;;;;;;0.90;0.70;;;9.00;99.90;;;;;;5021357;28;20073;-82
2023/11/15 01:27:56;;;;;;;2.50;0.90;;;9.10;99.90;;;;;;5018990;28;20033;-82
2023/11/15 01:30:22;;;;;;;3.27;1.00;;;9.10;99.90;;;;;;5018962;28;20735;-82
2023/11/15 01:32:48;;;;;;;2.03;0.90;;;9.10;99.90;;;;;;5018425;28;20025;-82
2023/11/15 01:35:13;;;;;;;2.20;0.90;;;9.10;99.90;;;;;;5017823;28;20496;-83
2023/11/15 01:37:39;;;;;;;2.07;0.80;;;9.00;99.90;;;;;;5018116;28;20034;-83
2023/11/15 01:40:06;;;;;;;2.63;0.80;;;9.10;99.90;;;;;;5016865;28;20127;-83
2023/11/15 01:42:33;;;;;;;0.90;0.60;;;9.10;99.90;;;;;;5016980;28;20029;-83
2023/11/15 01:44:59;;;;;;;2.83;0.80;;;9.10;99.90;;;;;;5017012;28;20562;-82
2023/11/15 01:47:25;;;;;;;3.00;0.80;;;9.20;99.90;;;;;;5018945;28;20540;-82
2023/11/15 01:49:51;;;;;;;3.43;0.90;;;9.20;99.90;;;;;;5011069;28;20107;-83
2023/11/15 01:52:18;;;;;;;1.97;1.00;;;9.30;99.90;;;;;;4999986;28;20030;-83
2023/11/15 01:54:45;;;;;;;3.97;0.80;;;9.30;99.90;;;;;;4995606;28;20037;-83
2023/11/15 01:57:11;;;;;;;3.50;0.87;;;9.30;99.90;;;;;;5000702;28;20041;-83
2023/11/15 01:59:37;;;;;;;3.33;0.80;;;9.40;99.90;;;;;;5002709;28;20033;-84
2023/11/15 02:02:03;;;;;;;1.87;0.83;;;9.50;99.90;;;;;;5003222;28;20701;-82
2023/11/15 02:04:29;;;;;;;3.23;1.00;;;9.50;99.90;;;;;;5002112;28;20021;-83
2023/11/15 02:06:54;;;;;;;0.87;0.60;;;9.60;99.90;;;;;;4997976;28;20245;-83
2023/11/15 02:09:21;;;;;;;2.67;0.77;;;9.60;99.90;;;;;;5001695;28;20053;-83
2023/11/15 02:11:46;;;;;;;2.43;0.63;;;9.60;99.90;;;;;;4998873;28;20057;-83
2023/11/15 02:14:12;;;;;;;3.00;0.80;;;9.70;99.90;;;;;;5001485;28;20050;-83
2023/11/15 02:16:38;;;;;;;3.40;0.70;;;9.60;99.90;;;;;;5001092;28;20025;-83
2023/11/15 02:19:04;;;;;;;1.93;0.70;;;9.60;99.90;;;;;;5002862;28;20033;-83
2023/11/15 02:21:30;;;;;;;3.27;0.80;;;9.60;99.90;;;;;;5001106;28;20828;-83
2023/11/15 02:23:56;;;;;;;4.97;0.70;;;9.60;99.90;;;;;;4999190;28;20034;-83
2023/11/15 02:26:22;;;;;;;3.83;0.90;;;9.50;99.90;;;;;;5000582;28;20113;-83
2023/11/15 02:28:47;;;;;;;2.60;0.80;;;9.50;99.90;;;;;;4999974;28;20041;-82
2023/11/15 02:31:13;;;;;;;3.20;0.90;;;9.50;99.90;;;;;;4999531;28;20030;-82
2023/11/15 02:33:38;;;;;;;2.10;0.70;;;9.50;99.90;;;;;;4998263;28;20469;-83
2023/11/15 02:36:04;;;;;;;2.37;0.90;;;9.40;99.90;;;;;;5001865;28;20022;-83
2023/11/15 02:38:30;;;;;;;3.23;0.70;;;9.40;99.90;;;;;;5006338;28;20038;-83
2023/11/15 02:40:55;;;;;;;2.50;0.70;;;9.30;99.90;;;;;;5019931;28;20101;-83
2023/11/15 02:43:21;;;;;;;1.93;0.70;;;9.20;99.90;;;;;;5018089;28;20026;-83
2023/11/15 02:45:47;;;;;;;2.87;1.00;;;9.20;99.90;;;;;;5006469;28;20042;-82
2023/11/15 02:48:13;;;;;;;2.27;1.10;;;9.20;99.90;;;;;;5008717;28;20026;-82
2023/11/15 02:50:38;;;;;;;3.40;0.87;;;9.20;99.90;;;;;;5021783;28;20072;-82
2023/11/15 02:53:04;;;;;;;2.57;1.00;;;9.10;99.90;;;;;;5025724;28;20117;-82
2023/11/15 02:55:30;;;;;;;1.43;0.70;;;9.10;99.90;;;;;;5025657;28;20040;-82
2023/11/15 02:57:56;;;;;;;3.27;0.90;;;9.10;99.90;;;;;;5024173;28;20173;-82
2023/11/15 03:00:22;;;;;;;2.10;0.90;;;9.10;99.90;;;;;;5008966;28;20029;-82
2023/11/15 03:02:49;;;;;;;1.60;0.80;;;9.10;99.90;;;;;;5024897;28;20030;-82
2023/11/15 03:05:16;;;;;;;2.33;1.00;;;9.00;99.90;;;;;;5022693;28;20059;-83
2023/11/15 03:07:41;;;;;;;4.23;1.10;;;9.00;99.90;;;;;;5023165;28;20080;-83
2023/11/15 03:10:08;;;;;;;3.47;1.10;;;8.90;99.90;;;;;;5020116;28;20037;-83
2023/11/15 03:12:34;;;;;;;1.70;0.70;;;8.90;99.90;;;;;;5023464;28;20034;-83
2023/11/15 03:14:59;;;;;;;2.53;0.80;;;8.90;99.90;;;;;;5024190;28;20034;-83
2023/11/15 03:17:25;;;;;;;2.00;0.90;;;8.80;99.90;;;;;;5022275;28;20044;-83
2023/11/15 03:19:51;;;;;;;2.87;0.80;;;8.90;99.90;;;;;;5020571;28;20094;-83
2023/11/15 03:22:18;;;;;;;2.63;0.70;;;8.90;99.90;;;;;;5023088;28;20030;-83
2023/11/15 03:24:45;;;;;;;1.80;0.93;;;8.90;99.90;;;;;;5004088;28;20170;-83
2023/11/15 03:27:13;;;;;;;1.43;0.60;;;8.90;99.90;;;;;;5021397;28;20071;-82
2023/11/15 03:29:39;;;;;;;2.63;0.97;;;8.80;99.90;;;;;;5022716;28;20121;-82
2023/11/15 03:32:05;;;;;;;2.20;0.90;;;8.80;99.90;;;;;;5020181;28;20575;-83
2023/11/15 03:34:30;;;;;;;1.20;0.70;;;8.80;99.90;;;;;;5019627;28;20291;-82
2023/11/15 03:36:58;;;;;;;4.63;1.00;;;8.70;99.90;;;;;;5020920;28;20042;-83
2023/11/15 03:39:24;;;;;;;1.93;0.80;;;8.80;99.90;;;;;;5024757;28;20034;-83
2023/11/15 03:41:49;;;;;;;0.83;0.60;;;8.80;99.90;;;;;;5024337;28;20017;-83
2023/11/15 03:44:15;;;;;;;2.50;0.80;;;8.70;99.90;;;;;;5025503;28;20030;-83
2023/11/15 03:46:41;;;;;;;0.90;0.67;;;8.70;99.90;;;;;;5021621;28;20022;-83
2023/11/15 03:49:06;;;;;;;2.30;0.80;;;8.70;99.90;;;;;;5022573;28;20063;-83
2023/11/15 03:51:32;;;;;;;1.97;0.70;;;8.70;99.90;;;;;;5021638;28;20045;-83
2023/11/15 03:53:57;;;;;;;5.67;0.90;;;8.70;99.90;;;;;;5022426;28;20060;-83
2023/11/15 03:56:23;;;;;;;2.67;0.73;;;8.80;99.90;;;;;;5023286;28;20503;-83
2023/11/15 03:58:48;;;;;;;4.00;0.73;;;8.80;99.90;;;;;;5023062;28;20140;-83
2023/11/15 04:01:14;;;;;;;1.70;0.80;;;8.70;99.90;;;;;;5021870;28;20026;-82
2023/11/15 04:03:40;;;;;;;3.30;0.80;;;8.80;99.90;;;;;;5024644;28;20025;-83
2023/11/15 04:06:05;;;;;;;1.00;0.57;;;8.80;99.90;;;;;;5021734;28;20650;-82
2023/11/15 04:08:31;;;;;;;2.30;0.60;;;8.80;99.90;;;;;;5024947;28;20034;-83
2023/11/15 04:11:00;;;;;;;2.17;0.80;;;8.70;99.90;;;;;;5024898;28;20024;-83
2023/11/15 04:13:26;;;;;;;1.53;1.00;;;8.70;99.90;;;;;;5023240;28;20037;-82
2023/11/15 04:15:51;;;;;;;1.83;0.90;;;8.60;99.90;;;;;;5022322;28;20029;-83
2023/11/15 04:18:17;;;;;;;1.23;0.57;;;8.60;99.90;;;;;;5022754;28;20144;-83
2023/11/15 04:20:43;;;;;;;4.27;1.47;;;8.60;99.90;;;;;;5025197;28;20424;-82
2023/11/15 04:23:08;;;;;;;3.50;0.90;;;8.60;99.90;;;;;;5021756;28;20029;-82
2023/11/15 04:25:34;;;;;;;1.77;0.60;;;8.60;99.90;;;;;;5023053;28;20053;-82
2023/11/15 04:27:59;;;;;;;2.53;0.73;;;8.60;99.90;;;;;;5025263;28;20041;-82
2023/11/15 04:30:26;;;;;;;2.23;0.67;;;8.60;99.90;;;;;;5026726;28;20026;-81
2023/11/15 04:32:52;;;;;;;3.97;0.70;;;8.50;99.90;;;;;;5022981;28;20030;-82
2023/11/15 04:35:17;;;;;;;0.83;0.60;;;8.50;99.90;;;;;;5023070;28;20040;-82
2023/11/15 04:37:43;;;;;;;3.70;0.77;;;8.50;99.90;;;;;;5024036;28;20769;-82
2023/11/15 04:40:10;;;;;;;3.17;0.90;;;8.40;99.90;;;;;;5023190;28;20037;-82
2023/11/15 04:42:36;;;;;;;3.17;0.90;;;8.40;99.90;;;;;;5023224;28;20034;-82
2023/11/15 04:45:02;;;;;;;2.27;0.80;;;8.30;99.90;;;;;;5022490;28;20025;-82
2023/11/15 04:47:28;;;;;;;2.27;0.80;;;8.30;99.90;;;;;;5023471;28;20033;-82
2023/11/15 04:49:54;;;;;;;2.60;0.60;;;8.30;99.90;;;;;;5024602;28;20039;-82
2023/11/15 04:52:19;;;;;;;1.83;0.70;;;8.30;99.90;;;;;;5021440;28;20156;-82
2023/11/15 04:54:45;;;;;;;2.90;0.90;;;8.20;99.90;;;;;;5022600;28;20162;-82
2023/11/15 04:57:11;;;;;;;2.20;0.60;;;8.20;99.90;;;;;;5026284;28;20021;-83
2023/11/15 04:59:37;;;;;;;1.03;0.67;;;8.10;99.90;;;;;;5025587;28;20057;-82
2023/11/15 05:02:03;;;;;;;2.87;0.97;;;8.10;99.90;;;;;;5025318;28;20025;-82
2023/11/15 05:04:29;;;;;;;2.37;0.93;;;8.10;99.90;;;;;;5027291;28;20025;-82
2023/11/15 05:06:54;;;;;;;4.23;1.23;;;8.10;99.90;;;;;;5022130;28;20041;-82
2023/11/15 05:09:24;;;;;;;4.47;0.97;;;8.00;99.90;;;;;;5024158;28;20026;-82
2023/11/15 05:11:50;;;;;;;2.73;1.10;;;8.00;99.90;;;;;;5023093;28;20365;-82
2023/11/15 05:14:15;;;;;;;3.40;1.37;;;8.00;99.90;;;;;;5024545;28;20033;-83
2023/11/15 05:16:41;;;;;;;3.43;1.07;;;8.00;99.90;;;;;;5021525;28;20033;-82
2023/11/15 05:19:06;;;;;;;1.97;1.17;;;8.00;99.90;;;;;;5024312;28;20033;-82
2023/11/15 05:21:32;;;;;;;2.07;0.97;;;7.90;99.90;;;;;;5023144;28;20028;-82
2023/11/15 05:23:59;;;;;;;4.03;1.00;;;8.00;99.90;;;;;;5023565;28;20036;-82
2023/11/15 05:26:24;;;;;;;3.43;0.90;;;8.10;99.90;;;;;;5021609;28;20127;-82
2023/11/15 05:28:50;;;;;;;5.53;1.37;;;8.10;99.90;;;;;;5022887;28;20508;-82
2023/11/15 05:31:16;;;;;;;2.70;0.80;;;8.10;99.90;;;;;;5021554;28;20037;-82
2023/11/15 05:33:41;;;;;;;3.53;0.90;;;8.10;99.90;;;;;;5021599;28;20022;-82
2023/11/15 05:36:08;;;;;;;4.70;1.00;;;8.10;99.90;;;;;;5032053;28;20028;-83
2023/11/15 05:38:35;;;;;;;4.53;1.40;;;8.10;99.90;;;;;;5035006;28;20044;-82
2023/11/15 05:41:02;;;;;;;2.60;0.97;;;8.10;99.90;;;;;;5028572;28;21484;-82
2023/11/15 05:43:28;;;;;;;1.73;0.80;;;8.10;99.90;;;;;;5016829;28;20040;-82
2023/11/15 05:45:54;;;;;;;2.43;1.17;;;8.10;99.90;;;;;;5017585;28;20029;-82
2023/11/15 05:48:20;;;;;;;3.13;1.00;;;8.10;99.90;;;;;;5016426;28;20476;-82
2023/11/15 05:50:45;;;;;;;1.93;0.77;;;8.10;99.90;;;;;;5015512;28;20030;-82
2023/11/15 05:53:11;;;;;;;3.40;1.00;;;8.10;99.90;;;;;;5018340;28;20063;-84
2023/11/15 05:55:36;;;;;;;3.63;0.80;;;8.10;99.90;;;;;;5018367;28;21667;-84
2023/11/15 05:58:04;;;;;;;5.93;0.80;;;8.10;99.90;;;;;;5018685;28;20034;-84
2023/11/15 06:00:31;;;;;;;3.83;1.07;;;8.10;99.90;;;;;;5012893;28;20033;-84
2023/11/15 06:02:57;;;;;;;1.87;0.90;;;8.10;99.90;;;;;;5016643;28;20029;-84
2023/11/15 06:05:23;;;;;;;2.87;0.90;;;8.00;99.90;;;;;;5014819;28;20631;-83
2023/11/15 06:07:48;;;;;;;5.17;1.30;;;8.10;99.90;;;;;;5016141;28;20109;-83
2023/11/15 06:10:14;;;;;;;3.00;0.73;;;8.10;99.90;;;;;;5012522;28;20067;-84
2023/11/15 06:12:40;;;;;;;8.07;1.10;;;8.10;99.90;;;;;;5011027;28;20459;-84
2023/11/15 06:15:10;;;;;;;2.40;0.83;;;8.00;99.90;;;;;;5010932;28;20033;-85
2023/11/15 06:17:36;;;;;;;3.70;1.20;;;8.00;99.90;;;;;;5009697;28;20612;-84
2023/11/15 06:20:03;;;;;;;2.37;0.90;;;8.00;99.90;;;;;;5012339;28;20244;-84
2023/11/15 06:22:29;;;;;;;1.53;1.07;;;8.00;99.90;;;;;;5010601;28;20087;-84
2023/11/15 06:24:54;;;;;;;6.23;1.03;;;8.00;99.90;;;;;;5010928;28;20033;-84
2023/11/15 06:27:20;;;;;;;2.63;0.80;;;8.00;99.90;;;;;;5012418;28;20032;-84
2023/11/15 06:29:50;;;;;;;5.53;1.20;;;8.00;99.90;;;;;;5011373;28;20025;-84
2023/11/15 06:32:16;;;;;;;6.93;1.23;;;8.00;99.90;;;;;;5008833;28;20029;-84
2023/11/15 06:34:45;;;;;;;2.67;1.03;;;8.00;99.90;;;;;;5009450;28;20032;-84
2023/11/15 06:37:13;;;;;;;4.77;0.90;;;8.00;99.90;;;;;;5010889;28;20083;-84
2023/11/15 06:39:41;;;;;;;3.00;0.90;;;8.10;99.90;;;;;;5013408;28;20080;-82
2023/11/15 06:42:07;;;;;;;1.63;0.70;;;8.00;99.90;;;;;;5015268;28;20032;-83
2023/11/15 06:44:33;;;;;;;2.53;0.80;;;8.00;99.90;;;;;;5018201;28;20025;-82
2023/11/15 06:47:01;;;;;;;2.87;1.13;;;8.10;99.90;;;;;;5017975;28;20034;-82
2023/11/15 06:49:27;;;;;;;3.03;0.90;;;8.20;99.90;;;;;;5016305;28;20049;-81
2023/11/15 06:51:53;;;;;;;4.37;0.83;;;8.10;99.90;;;;;;5018304;28;20057;-82
2023/11/15 06:54:18;;;;;;;6.90;1.20;;;8.10;99.90;;;;;;5016233;28;20139;-82
2023/11/15 06:56:48;;;;;;;2.33;0.80;;;8.10;99.90;;;;;;5015014;28;20030;-82
2023/11/15 06:59:17;;;;;;;2.40;0.90;;;8.20;99.90;;;;;;5017568;28;20408;-82
2023/11/15 07:01:49;;;;;;;3.67;0.97;;;8.20;99.90;;;;;;5015696;28;20026;-82
2023/11/15 07:04:15;;;;;;;3.07;1.00;;;8.20;99.90;;;;;;5016183;28;20095;-82
2023/11/15 07:06:47;;;;;;;1.77;0.90;;;8.30;99.90;;;;;;5016037;28;20037;-83
2023/11/15 07:09:15;;;;;;;3.23;1.03;;;8.30;99.90;;;;;;5021391;28;20029;-83
2023/11/15 07:11:46;;;;;;;3.57;0.97;;;8.30;99.90;;;;;;5017274;28;20034;-84
2023/11/15 07:14:14;;;;;;;2.17;0.90;;;8.30;99.90;;;;;;5016567;28;21326;-83
2023/11/15 07:16:47;;;;;;;3.63;0.90;;;8.40;99.90;;;;;;5017675;28;20022;-83
2023/11/15 07:19:13;;;;;;;2.00;0.90;;;8.40;99.90;;;;;;5016702;28;20026;-83
2023/11/15 07:21:39;;;;;;;4.93;1.10;;;8.40;99.90;;;;;;5016274;28;20472;-84
2023/11/15 07:24:05;;;;;;;4.00;1.10;;;8.50;99.90;;;;;;5014686;28;20025;-84
2023/11/15 07:26:35;;;;;;;3.90;0.90;;;8.50;99.90;;;;;;5012366;28;20030;-84
2023/11/15 07:29:07;;;;;;;3.70;1.10;;;8.50;99.90;;;;;;5010699;28;20057;-83
2023/11/15 07:31:34;;;;;;;2.60;0.97;;;8.50;99.90;;;;;;5009274;28;20037;-84
2023/11/15 07:34:00;;;;;;;1.80;0.90;;;8.50;99.90;;;;;;5010437;28;20076;-84
2023/11/15 07:36:29;;;;;;;3.53;1.07;;;8.50;99.90;;;;;;5014543;28;20062;-83
2023/11/15 07:38:55;;;;;;;3.13;1.00;;;8.50;99.90;;;;;;5013270;28;20061;-84
2023/11/15 07:41:21;;;;;;;2.50;0.90;;;8.50;99.90;;;;;;5014397;28;20068;-84
2023/11/15 07:43:47;;;;;;;3.70;0.97;;;8.60;99.90;;;;;;5012373;28;20034;-82
2023/11/15 07:46:13;;;;;;;6.67;1.03;;;8.60;99.90;;;;;;5012285;28;20420;-83
2023/11/15 07:48:40;;;;;;;3.57;1.00;;;8.60;99.90;;;;;;5014750;28;20037;-83
2023/11/15 07:51:08;;;;;;;1.20;0.80;;;8.70;99.90;;;;;;5023589;28;21086;-83
2023/11/15 07:53:34;;;;;;;5.13;1.40;;;8.80;99.90;;;;;;5016824;28;20041;-83
2023/11/15 07:55:59;;;;;;;5.40;1.00;;;8.80;99.90;;;;;;5017676;28;20037;-82
2023/11/15 07:58:26;;;;;;;2.20;0.93;;;8.90;99.90;;;;;;5017516;28;20029;-82
2023/11/15 08:00:52;;;;;;;2.97;0.90;;;8.90;99.90;;;;;;5017042;28;20037;-83
2023/11/15 08:03:19;;;;;;;3.00;1.00;;;8.80;99.90;;;;;;5017937;28;20036;-82
2023/11/15 08:05:47;;;;;;;6.50;1.40;;;8.80;99.90;;;;;;5017024;28;20033;-83
2023/11/15 08:08:14;;;;;;;4.67;1.40;;;8.90;99.90;;;;;;5016831;28;20025;-83
2023/11/15 08:10:46;;;;;;;4.03;0.90;;;8.90;99.90;;;;;;5018043;28;20416;-83
2023/11/15 08:13:13;;;;;;;3.70;0.90;;;9.00;99.90;;;;;;5017563;28;20485;-83
2023/11/15 08:15:39;;;;;;;7.27;1.20;;;9.10;99.90;;;;;;5016686;28;20029;-83
2023/11/15 08:18:05;;;;;;;5.53;1.07;;;9.10;99.90;;;;;;5018657;28;20033;-83
2023/11/15 08:20:31;;;;;;;5.70;2.00;;;9.20;99.90;;;;;;5018876;28;20022;-84
2023/11/15 08:22:57;;;;;;;5.43;2.27;;;9.20;99.90;;;;;;5018714;28;20038;-84
2023/11/15 08:25:25;;;;;;;3.07;1.40;;;9.20;99.90;;;;;;5018850;28;20100;-83
2023/11/15 08:27:52;;;;;;;4.17;1.20;;;9.30;99.90;;;;;;5017293;28;20131;-84
2023/11/15 08:30:17;;;;;;;4.87;1.27;;;9.30;99.90;;;;;;5018829;28;20037;-84
2023/11/15 08:32:49;;;;;;;7.97;1.30;;;9.30;99.90;;;;;;5031822;28;20048;-86
2023/11/15 08:35:16;;;;;;;5.60;1.03;;;9.30;99.90;;;;;;5032766;28;20049;-85
2023/11/15 08:37:42;;;;;;;4.43;1.13;;;9.30;99.90;;;;;;5026893;28;20029;-82
2023/11/15 08:40:10;;;;;;;4.40;0.97;;;9.30;99.90;;;;;;5019546;28;20035;-83
2023/11/15 08:42:36;;;;;;;4.27;1.37;;;9.30;99.90;;;;;;5020337;28;20822;-83
2023/11/15 08:45:07;;;;;;;4.33;1.07;;;9.30;99.90;;;;;;5019855;28;20022;-84
2023/11/15 08:47:33;;;;;;;5.50;1.20;;;9.30;99.90;;;;;;5020334;28;20044;-83
2023/11/15 08:49:59;;;;;;;3.80;1.00;;;9.40;99.90;;;;;;5017383;28;20033;-82
2023/11/15 08:52:24;;;;;;;1.57;0.80;;;9.40;99.90;;;;;;5014238;28;20029;-82
2023/11/15 08:54:51;;;;;;;5.37;1.50;;;9.40;99.90;;;;;;5014128;28;20480;-84
2023/11/15 08:57:17;;;;;;;1.87;1.20;;;9.70;99.90;;;;;;5016087;28;20029;-83
2023/11/15 08:59:45;;;;;;;3.60;1.53;;;9.70;99.90;;;;;;5017357;28;20036;-83
2023/11/15 09:02:11;;;;;;;4.70;1.40;;;9.60;99.90;;;;;;5017368;28;20051;-82
2023/11/15 09:04:40;;;;;;;6.10;1.10;;;9.60;99.90;;;;;;5016039;28;20039;-83
2023/11/15 09:07:07;;;;;;;4.10;1.20;;;9.70;99.90;;;;;;5017645;28;20052;-82
2023/11/15 09:09:40;;;;;;;3.23;1.10;;;9.60;99.90;;;;;;5018897;28;20059;-83
2023/11/15 09:12:09;;;;;;;2.30;0.80;;;9.70;99.90;;;;;;5018596;28;20034;-82
2023/11/15 09:14:36;;;;;;;5.10;1.20;;;9.60;99.90;;;;;;5017796;28;20021;-83
2023/11/15 09:17:12;;;;;;;3.90;1.00;;;9.70;99.90;;;;;;5017141;28;20028;-82
2023/11/15 09:19:40;;;;;;;2.83;1.50;;;9.60;99.90;;;;;;5014641;28;20030;-85
2023/11/15 09:22:06;;;;;;;3.77;1.00;;;9.70;99.90;;;;;;5015903;28;20102;-83
2023/11/15 09:24:33;;;;;;;6.33;1.73;;;9.60;99.90;;;;;;5014612;28;20489;-83
2023/11/15 09:27:00;;;;;;;3.03;1.00;;;9.60;99.90;;;;;;5017056;28;20072;-84
2023/11/15 09:29:28;;;;;;;3.53;1.20;;;9.60;99.90;;;;;;5014591;28;20507;-84
2023/11/15 09:31:54;;;;;;;5.30;1.43;;;9.60;99.90;;;;;;5016148;28;20033;-83
2023/11/15 09:34:20;;;;;;;2.97;0.87;;;9.60;99.90;;;;;;5014281;28;20030;-84
2023/11/15 09:36:47;;;;;;;4.53;1.20;;;9.50;99.90;;;;;;5014710;28;20032;-83
2023/11/15 09:39:16;;;;;;;5.70;1.27;;;9.40;99.90;;;;;;5012778;28;20037;-83
2023/11/15 09:41:48;;;;;;;7.53;1.07;;;9.40;99.90;;;;;;5012810;28;20017;-83
2023/11/15 09:44:18;;;;;;;3.33;1.40;;;9.50;99.90;;;;;;5013789;28;20100;-84
2023/11/15 09:46:45;;;;;;;6.20;1.20;;;9.50;99.90;;;;;;5008740;28;20090;-84
2023/11/15 09:49:14;;;;;;;5.10;0.83;;;9.60;99.90;;;;;;5008825;28;20080;-82
2023/11/15 09:51:40;;;;;;;3.03;1.00;;;9.70;99.90;;;;;;5011106;28;20736;-83
2023/11/15 09:54:06;;;;;;;4.97;1.20;;;9.80;99.90;;;;;;5010670;28;20029;-84
2023/11/15 09:56:35;;;;;;;4.37;1.20;;;9.80;99.90;;;;;;5010124;28;20024;-84
2023/11/15 09:59:01;;;;;;;5.93;1.37;;;9.80;99.90;;;;;;5010775;28;20034;-85
2023/11/15 10:01:26;;;;;;;3.50;0.87;;;9.80;99.90;;;;;;5010263;28;20021;-85
2023/11/15 10:03:52;;;;;;;3.33;1.40;;;9.80;99.90;;;;;;5009002;28;20078;-84
2023/11/15 10:06:18;;;;;;;2.27;1.13;;;9.80;99.90;;;;;;5008435;28;20131;-83
2023/11/15 10:08:53;;;;;;;6.97;1.20;;;9.80;99.90;;;;;;5011280;28;20033;-83
2023/11/15 10:11:20;;;;;;;3.78;1.40;;;9.80;99.90;;;;;;5014360;28;20037;-83
2023/11/15 10:13:51;;;;;;;1.90;0.83;;;10.00;99.90;;;;;;5010831;28;20033;-83
2023/11/15 10:16:22;;;;;;;3.57;1.00;;;10.10;99.90;;;;;;5008936;28;20132;-85
2023/11/15 10:18:48;;;;;;;4.70;1.30;;;10.10;99.90;;;;;;5011490;28;20034;-83
2023/11/15 10:21:14;;;;;;;3.50;1.10;;;10.20;99.90;;;;;;5013659;28;20026;-83
2023/11/15 10:23:40;;;;;;;6.07;1.50;;;10.20;99.90;;;;;;5012467;28;20052;-83
2023/11/15 10:26:06;;;;;;;6.07;1.67;;;10.30;99.90;;;;;;5007901;28;20503;-84
2023/11/15 10:28:33;;;;;;;4.47;0.90;;;10.20;99.90;;;;;;5010570;28;21283;-85
2023/11/15 10:31:04;;;;;;;3.33;1.00;;;10.20;99.90;;;;;;5010237;28;20033;-84
2023/11/15 10:33:31;;;;;;;4.30;1.27;;;10.20;99.90;;;;;;5010529;28;20179;-83
2023/11/15 10:36:15;;;;;;;5.80;2.23;;;10.20;99.90;;;;;;5010714;28;20069;-84
2023/11/15 10:38:55;;;;;;;2.13;0.80;;;10.20;99.90;;;;;;5009285;28;20171;-83
2023/11/15 10:41:23;;;;;;;3.20;1.00;;;10.10;99.90;;;;;;5011231;28;20070;-84
2023/11/15 10:43:54;;;;;;;6.33;1.60;;;10.10;99.90;;;;;;5010783;28;20807;-83
2023/11/15 10:46:30;;;;;;;4.27;1.10;;;10.10;99.90;;;;;;5007976;28;20153;-85
2023/11/15 10:48:57;;;;;;;4.73;0.90;;;10.00;99.90;;;;;;5010821;28;20115;-84
2023/11/15 10:51:29;;;;;;;2.97;1.00;;;10.00;99.90;;;;;;5012669;28;20041;-84
2023/11/15 10:53:56;;;;;;;3.77;1.23;;;10.00;99.90;;;;;;5011319;28;20041;-83
2023/11/15 10:56:24;;;;;;;3.63;0.93;;;10.00;99.90;;;;;;5010650;28;20041;-83
2023/11/15 10:58:52;;;;;;;2.87;1.00;;;10.00;99.90;;;;;;5011985;28;20138;-84
2023/11/15 11:01:19;;;;;;;2.60;0.80;;;10.10;99.90;;;;;;5017461;28;20112;-83
2023/11/15 11:03:52;;;;;;;2.47;0.90;;;10.20;99.90;;;;;;5016090;28;20030;-83
2023/11/15 11:06:50;;;;;;;4.07;1.57;;;10.20;99.90;;;;;;5020801;28;20364;-83
2023/11/15 11:09:29;;;;;;;3.10;0.90;;;10.20;99.90;;;;;;5023801;28;20025;-84
2023/11/15 11:12:12;;;;;;;2.73;1.00;;;10.20;99.90;;;;;;5023303;28;20021;-83
2023/11/15 11:14:39;;;;;;;2.60;0.73;;;10.20;99.90;;;;;;5019470;28;20112;-83
2023/11/15 11:17:32;;;;;;;1.53;0.80;;;10.20;99.90;;;;;;5020877;28;20096;-83
2023/11/15 11:20:01;;;;;;;3.10;1.10;;;10.20;99.90;;;;;;5020380;28;20029;-82
2023/11/15 11:22:27;;;;;;;5.57;1.50;;;10.10;99.90;;;;;;5018871;28;20168;-83
2023/11/15 11:24:59;;;;;;;3.03;1.00;;;10.10;99.90;;;;;;5019531;28;20026;-83
2023/11/15 11:27:24;;;;;;;6.57;1.13;;;10.10;99.90;;;;;;5022780;28;20049;-84
2023/11/15 11:30:00;;;;;;;2.53;1.00;;;10.20;99.90;;;;;;5036951;28;20030;-82
2023/11/15 11:32:27;;;;;;;5.07;0.90;;;10.10;99.90;;;;;;5034258;28;20025;-86
2023/11/15 11:35:05;;;;;;;4.90;1.13;;;10.10;99.90;;;;;;5020237;28;20495;-83
2023/11/15 11:37:47;;;;;;;3.07;0.90;;;10.10;99.90;;;;;;5018506;28;20037;-86
2023/11/15 11:40:19;;;;;;;2.37;1.00;;;10.00;99.90;;;;;;5022350;28;20476;-82
2023/11/15 11:42:47;;;;;;;3.30;1.00;;;10.00;99.90;;;;;;5021627;28;20025;-81
2023/11/15 11:45:14;;;;;;;2.67;0.90;;;9.90;99.90;;;;;;5019810;28;20040;-81
2023/11/15 11:47:41;;;;;;;8.73;1.87;;;9.80;99.90;;;;;;5020494;28;20034;-81
2023/11/15 11:50:07;;;;;;;2.90;0.90;;;9.80;99.90;;;;;;5018668;28;20148;-82
2023/11/15 11:52:39;;;;;;;2.53;0.90;;;9.70;99.90;;;;;;5020743;28;20021;-81
2023/11/15 11:55:06;;;;;;;2.50;1.10;;;9.60;99.90;;;;;;5019096;28;20025;-82
2023/11/15 11:57:33;;;;;;;4.10;1.23;;;9.50;99.90;;;;;;5016007;28;20056;-81
2023/11/15 12:00:11;;;;;;;4.47;1.30;;;9.40;99.90;;;;;;5011790;28;20029;-82
2023/11/15 12:02:57;;;;;;;4.53;1.43;;;9.40;99.90;;;;;;5013318;28;20030;-81
2023/11/15 12:05:24;;;;;;;2.83;1.20;;;9.30;99.90;;;;;;5012085;28;20045;-81
2023/11/15 12:07:53;;;;;;;1.77;1.00;;;9.40;99.90;;;;;;5012702;28;21494;-81
2023/11/15 12:10:19;;;;;;;3.53;1.20;;;9.40;99.90;;;;;;5014035;28;20423;-82
2023/11/15 12:12:54;;;;;;;3.37;1.30;;;9.40;99.90;;;;;;5012682;28;20044;-81
2023/11/15 12:15:22;;;;;;;3.07;1.13;;;9.40;99.90;;;;;;5014308;28;20602;-83
2023/11/15 12:17:48;;;;;;;4.97;1.70;;;9.40;99.90;;;;;;5014220;28;20059;-82
2023/11/15 12:20:26;;;;;;;3.80;1.20;;;9.40;99.90;;;;;;5014017;28;20030;-82
2023/11/15 12:23:03;;;;;;;4.23;1.50;;;9.40;99.90;;;;;;5013717;28;20030;-82
2023/11/15 12:25:32;;;;;;;4.70;1.40;;;9.50;99.90;;;;;;5013711;28;20489;-81
2023/11/15 12:28:02;;;;;;;3.90;1.10;;;9.70;99.90;;;;;;5014627;28;20034;-81
2023/11/15 12:30:33;;;;;;;2.77;1.13;;;9.90;99.90;;;;;;5013122;28;20052;-82
2023/11/15 12:33:02;;;;;;;9.80;2.10;;;10.00;99.90;;;;;;5011837;28;20696;-82
2023/11/15 12:35:31;;;;;;;3.73;1.10;;;10.20;99.90;;;;;;5011530;28;21083;-82
2023/11/15 12:37:57;;;;;;;4.23;1.53;;;10.10;99.90;;;;;;5014471;28;20048;-82
2023/11/15 12:40:23;;;;;;;4.20;1.20;;;10.00;99.90;;;;;;5021760;28;20041;-82
2023/11/15 12:42:54;;;;;;;3.87;1.17;;;10.00;99.90;;;;;;5023643;28;20075;-81
2023/11/15 12:45:36;;;;;;;4.23;1.20;;;9.80;99.90;;;;;;5021200;28;20026;-80
2023/11/15 12:48:03;;;;;;;5.93;1.50;;;9.70;99.90;;;;;;5023236;28;20060;-80
2023/11/15 12:50:31;;;;;;;5.63;1.60;;;9.60;99.90;;;;;;5019494;28;20029;-80
2023/11/15 12:53:07;;;;;;;6.07;1.60;;;9.60;99.90;;;;;;5022015;28;20036;-81
2023/11/15 12:55:38;;;;;;;4.97;1.50;;;9.60;99.90;;;;;;5017256;28;20694;-80
2023/11/15 12:58:04;;;;;;;3.53;1.17;;;9.60;99.90;;;;;;5019405;28;20033;-81